sensor_id;sensor_type;location;lat;lon;timestamp;P1;durP1;ratioP1;P2;durP2;ratioP2
14708;SDS011;7445;50.774;4.944;2023-08-06T07:14:38;9.70;;;5.37;;
14708;SDS011;7445;50.774;4.944;2023-08-06T07:17:04;6.33;;;4.87;;
14708;SDS011;7445;50.774;4.944;2023-08-06T07:19:30;8.90;;;5.70;;
14708;SDS011;7445;50.774;4.944;2023-08-06T07:21:56;10.30;;;6.33;;
14708;SDS011;7445;50.774;4.944;2023-08-06T07:24:21;8.53;;;5.77;;
14708;SDS011;7445;50.774;4.944;2023-08-06T07:26:47;8.43;;;5.87;;
14708;SDS011;7445;50.774;4.944;2023-08-06T07:29:13;7.67;;;6.10;;
14708;SDS011;7445;50.774;4.944;2023-08-06T07:31:44;16.93;;;6.60;;
14708;SDS011;7445;50.774;4.944;2023-08-06T07:34:10;10.70;;;6.53;;
14708;SDS011;7445;50.774;4.944;2023-08-06T07:36:35;11.80;;;6.03;;
14708;SDS011;7445;50.774;4.944;2023-08-06T07:39:02;9.70;;;5.40;;
14708;SDS011;7445;50.774;4.944;2023-08-06T07:41:33;11.13;;;5.70;;
14708;SDS011;7445;50.774;4.944;2023-08-06T07:44:00;12.07;;;6.60;;
14708;SDS011;7445;50.774;4.944;2023-08-06T07:46:26;10.57;;;5.47;;
14708;SDS011;7445;50.774;4.944;2023-08-06T07:49:07;9.97;;;5.67;;
14708;SDS011;7445;50.774;4.944;2023-08-06T07:51:38;12.60;;;5.47;;
14708;SDS011;7445;50.774;4.944;2023-08-06T07:54:07;5.67;;;4.93;;
14708;SDS011;7445;50.774;4.944;2023-08-06T07:56:53;8.20;;;4.43;;
14708;SDS011;7445;50.774;4.944;2023-08-06T07:59:20;8.23;;;5.37;;
14708;SDS011;7445;50.774;4.944;2023-08-06T08:01:47;10.37;;;5.20;;
14708;SDS011;7445;50.774;4.944;2023-08-06T08:04:13;9.03;;;5.83;;
14708;SDS011;7445;50.774;4.944;2023-08-06T08:06:43;11.43;;;4.40;;
14708;SDS011;7445;50.774;4.944;2023-08-06T08:09:08;12.63;;;5.30;;
14708;SDS011;7445;50.774;4.944;2023-08-06T08:11:34;6.17;;;4.83;;
14708;SDS011;7445;50.774;4.944;2023-08-06T08:14:00;10.60;;;4.93;;
14708;SDS011;7445;50.774;4.944;2023-08-06T08:16:45;7.07;;;4.47;;
14708;SDS011;7445;50.774;4.944;2023-08-06T08:19:11;7.73;;;4.03;;
14708;SDS011;7445;50.774;4.944;2023-08-06T08:21:46;8.80;;;3.23;;
14708;SDS011;7445;50.774;4.944;2023-08-06T08:24:14;5.73;;;2.40;;
14708;SDS011;7445;50.774;4.944;2023-08-06T08:26:40;4.80;;;2.40;;
14708;SDS011;7445;50.774;4.944;2023-08-06T08:29:11;13.33;;;3.07;;
14708;SDS011;7445;50.774;4.944;2023-08-06T08:34:36;8.50;;;2.70;;
14708;SDS011;7445;50.774;4.944;2023-08-06T08:37:06;9.43;;;2.70;;
14708;SDS011;7445;50.774;4.944;2023-08-06T08:39:34;5.47;;;2.07;;
14708;SDS011;7445;50.774;4.944;2023-08-06T08:41:59;10.27;;;2.87;;
14708;SDS011;7445;50.774;4.944;2023-08-06T08:44:35;9.10;;;3.70;;
14708;SDS011;7445;50.774;4.944;2023-08-06T08:47:08;12.57;;;3.60;;
14708;SDS011;7445;50.774;4.944;2023-08-06T08:49:49;7.97;;;3.50;;
14708;SDS011;7445;50.774;4.944;2023-08-06T08:52:40;7.67;;;3.50;;
14708;SDS011;7445;50.774;4.944;2023-08-06T08:55:07;11.50;;;4.80;;
14708;SDS011;7445;50.774;4.944;2023-08-06T08:57:40;8.07;;;3.67;;
14708;SDS011;7445;50.774;4.944;2023-08-06T09:00:13;10.33;;;3.90;;
14708;SDS011;7445;50.774;4.944;2023-08-06T09:02:47;5.77;;;2.93;;
14708;SDS011;7445;50.774;4.944;2023-08-06T09:05:53;5.97;;;3.23;;
14708;SDS011;7445;50.774;4.944;2023-08-06T09:08:27;12.33;;;4.50;;
14708;SDS011;7445;50.774;4.944;2023-08-06T09:11:09;11.53;;;3.73;;
14708;SDS011;7445;50.774;4.944;2023-08-06T09:13:39;6.10;;;3.43;;
14708;SDS011;7445;50.774;4.944;2023-08-06T09:16:36;4.40;;;2.57;;
14708;SDS011;7445;50.774;4.944;2023-08-06T09:19:12;7.63;;;2.57;;
14708;SDS011;7445;50.774;4.944;2023-08-06T09:21:41;6.77;;;2.57;;
14708;SDS011;7445;50.774;4.944;2023-08-06T09:24:15;5.67;;;3.20;;
14708;SDS011;7445;50.774;4.944;2023-08-06T09:26:41;6.10;;;2.43;;
14708;SDS011;7445;50.774;4.944;2023-08-06T09:29:09;4.70;;;2.00;;
14708;SDS011;7445;50.774;4.944;2023-08-06T09:31:44;7.73;;;2.47;;
14708;SDS011;7445;50.774;4.944;2023-08-06T09:34:14;9.10;;;2.47;;
14708;SDS011;7445;50.774;4.944;2023-08-06T09:36:42;6.33;;;2.27;;
14708;SDS011;7445;50.774;4.944;2023-08-06T09:39:15;3.80;;;2.17;;
14708;SDS011;7445;50.774;4.944;2023-08-06T09:41:58;4.97;;;1.90;;
14708;SDS011;7445;50.774;4.944;2023-08-06T09:44:31;6.73;;;2.90;;
14708;SDS011;7445;50.774;4.944;2023-08-06T09:47:01;5.17;;;2.10;;
14708;SDS011;7445;50.774;4.944;2023-08-06T09:51:57;6.47;;;2.17;;
14708;SDS011;7445;50.774;4.944;2023-08-06T09:54:27;7.97;;;2.73;;
14708;SDS011;7445;50.774;4.944;2023-08-06T09:57:01;4.73;;;2.50;;
14708;SDS011;7445;50.774;4.944;2023-08-06T09:59:30;4.60;;;1.90;;
14708;SDS011;7445;50.774;4.944;2023-08-06T10:01:57;5.73;;;1.90;;
14708;SDS011;7445;50.774;4.944;2023-08-06T10:04:23;8.27;;;3.03;;
14708;SDS011;7445;50.774;4.944;2023-08-06T10:06:55;5.57;;;2.03;;
14708;SDS011;7445;50.774;4.944;2023-08-06T10:09:23;5.03;;;2.20;;
14708;SDS011;7445;50.774;4.944;2023-08-06T10:11:57;6.93;;;2.20;;
14708;SDS011;7445;50.774;4.944;2023-08-06T10:14:33;7.60;;;2.20;;
14708;SDS011;7445;50.774;4.944;2023-08-06T10:17:02;6.00;;;2.13;;
14708;SDS011;7445;50.774;4.944;2023-08-06T10:23:00;6.43;;;2.10;;
14708;SDS011;7445;50.774;4.944;2023-08-06T10:32:19;4.40;;;1.93;;
14708;SDS011;7445;50.774;4.944;2023-08-06T10:34:58;6.40;;;2.30;;
14708;SDS011;7445;50.774;4.944;2023-08-06T10:37:35;3.57;;;2.03;;
14708;SDS011;7445;50.774;4.944;2023-08-06T10:40:02;5.37;;;2.30;;
14708;SDS011;7445;50.774;4.944;2023-08-06T10:42:34;7.73;;;2.20;;
14708;SDS011;7445;50.774;4.944;2023-08-06T10:45:14;4.30;;;1.77;;
14708;SDS011;7445;50.774;4.944;2023-08-06T10:47:44;8.77;;;2.00;;
14708;SDS011;7445;50.774;4.944;2023-08-06T10:50:15;5.37;;;2.20;;
14708;SDS011;7445;50.774;4.944;2023-08-06T10:52:46;3.27;;;1.80;;
14708;SDS011;7445;50.774;4.944;2023-08-06T10:55:25;3.63;;;2.10;;
14708;SDS011;7445;50.774;4.944;2023-08-06T10:58:06;3.93;;;1.90;;
14708;SDS011;7445;50.774;4.944;2023-08-06T11:00:39;4.20;;;1.70;;
14708;SDS011;7445;50.774;4.944;2023-08-06T11:03:33;4.80;;;2.00;;
14708;SDS011;7445;50.774;4.944;2023-08-06T11:05:59;6.67;;;2.63;;
14708;SDS011;7445;50.774;4.944;2023-08-06T11:08:33;7.07;;;2.03;;
14708;SDS011;7445;50.774;4.944;2023-08-06T11:11:13;3.90;;;2.67;;
14708;SDS011;7445;50.774;4.944;2023-08-06T11:13:40;7.17;;;2.63;;
14708;SDS011;7445;50.774;4.944;2023-08-06T11:16:08;9.10;;;2.80;;
14708;SDS011;7445;50.774;4.944;2023-08-06T11:18:36;3.97;;;2.60;;
14708;SDS011;7445;50.774;4.944;2023-08-06T11:21:05;4.50;;;2.43;;
14708;SDS011;7445;50.774;4.944;2023-08-06T11:23:34;6.17;;;2.77;;
14708;SDS011;7445;50.774;4.944;2023-08-06T11:26:00;4.60;;;2.00;;
14708;SDS011;7445;50.774;4.944;2023-08-06T11:28:26;5.40;;;2.47;;
14708;SDS011;7445;50.774;4.944;2023-08-06T11:30:54;6.53;;;3.17;;
14708;SDS011;7445;50.774;4.944;2023-08-06T11:33:25;8.33;;;3.27;;
14708;SDS011;7445;50.774;4.944;2023-08-06T11:35:51;6.57;;;2.90;;
14708;SDS011;7445;50.774;4.944;2023-08-06T11:38:17;3.77;;;2.30;;
14708;SDS011;7445;50.774;4.944;2023-08-06T11:40:45;2.60;;;2.40;;
14708;SDS011;7445;50.774;4.944;2023-08-06T11:43:11;3.90;;;2.20;;
14708;SDS011;7445;50.774;4.944;2023-08-06T11:45:38;7.13;;;2.90;;
14708;SDS011;7445;50.774;4.944;2023-08-06T11:48:03;5.23;;;2.90;;
14708;SDS011;7445;50.774;4.944;2023-08-06T11:50:30;6.90;;;2.63;;
14708;SDS011;7445;50.774;4.944;2023-08-06T11:52:56;6.90;;;2.83;;
14708;SDS011;7445;50.774;4.944;2023-08-06T11:55:23;8.37;;;3.13;;
14708;SDS011;7445;50.774;4.944;2023-08-06T11:57:50;7.77;;;3.20;;
14708;SDS011;7445;50.774;4.944;2023-08-06T12:00:16;5.13;;;3.10;;
14708;SDS011;7445;50.774;4.944;2023-08-06T12:02:48;7.90;;;3.17;;
14708;SDS011;7445;50.774;4.944;2023-08-06T12:05:17;7.80;;;3.07;;
14708;SDS011;7445;50.774;4.944;2023-08-06T12:07:46;11.00;;;4.03;;
14708;SDS011;7445;50.774;4.944;2023-08-06T12:10:15;8.33;;;2.40;;
14708;SDS011;7445;50.774;4.944;2023-08-06T12:12:41;5.00;;;2.73;;
14708;SDS011;7445;50.774;4.944;2023-08-06T12:15:08;4.73;;;2.17;;
14708;SDS011;7445;50.774;4.944;2023-08-06T12:17:35;4.27;;;2.40;;
14708;SDS011;7445;50.774;4.944;2023-08-06T12:20:02;6.53;;;1.80;;
14708;SDS011;7445;50.774;4.944;2023-08-06T12:22:31;5.40;;;2.83;;
14708;SDS011;7445;50.774;4.944;2023-08-06T12:25:03;3.60;;;1.93;;
14708;SDS011;7445;50.774;4.944;2023-08-06T12:27:33;4.37;;;2.43;;
14708;SDS011;7445;50.774;4.944;2023-08-06T12:29:59;5.33;;;2.17;;
14708;SDS011;7445;50.774;4.944;2023-08-06T12:32:27;2.80;;;1.73;;
14708;SDS011;7445;50.774;4.944;2023-08-06T12:34:53;3.33;;;1.90;;
14708;SDS011;7445;50.774;4.944;2023-08-06T12:37:18;6.43;;;2.43;;
14708;SDS011;7445;50.774;4.944;2023-08-06T12:39:44;8.73;;;2.33;;
14708;SDS011;7445;50.774;4.944;2023-08-06T12:44:38;7.00;;;2.60;;
14708;SDS011;7445;50.774;4.944;2023-08-06T12:47:04;6.83;;;2.93;;
14708;SDS011;7445;50.774;4.944;2023-08-06T12:49:30;6.60;;;1.80;;
14708;SDS011;7445;50.774;4.944;2023-08-06T12:51:58;6.17;;;2.70;;
14708;SDS011;7445;50.774;4.944;2023-08-06T12:54:24;5.10;;;2.30;;
14708;SDS011;7445;50.774;4.944;2023-08-06T12:56:51;11.60;;;2.63;;
14708;SDS011;7445;50.774;4.944;2023-08-06T12:59:18;7.00;;;2.30;;
14708;SDS011;7445;50.774;4.944;2023-08-06T13:01:45;9.53;;;3.03;;
14708;SDS011;7445;50.774;4.944;2023-08-06T13:04:11;6.37;;;3.10;;
14708;SDS011;7445;50.774;4.944;2023-08-06T13:06:37;5.97;;;2.43;;
14708;SDS011;7445;50.774;4.944;2023-08-06T13:09:08;6.87;;;2.00;;
14708;SDS011;7445;50.774;4.944;2023-08-06T13:11:38;7.73;;;2.77;;
14708;SDS011;7445;50.774;4.944;2023-08-06T13:14:12;6.60;;;2.77;;
14708;SDS011;7445;50.774;4.944;2023-08-06T13:16:40;7.00;;;2.50;;
14708;SDS011;7445;50.774;4.944;2023-08-06T13:19:07;5.50;;;2.17;;
14708;SDS011;7445;50.774;4.944;2023-08-06T13:21:35;8.10;;;2.63;;
14708;SDS011;7445;50.774;4.944;2023-08-06T13:24:07;4.27;;;2.77;;
14708;SDS011;7445;50.774;4.944;2023-08-06T13:26:39;5.70;;;2.57;;
14708;SDS011;7445;50.774;4.944;2023-08-06T13:29:04;9.23;;;3.17;;
14708;SDS011;7445;50.774;4.944;2023-08-06T13:31:32;5.20;;;2.03;;
14708;SDS011;7445;50.774;4.944;2023-08-06T13:34:01;6.57;;;2.83;;
14708;SDS011;7445;50.774;4.944;2023-08-06T13:36:31;7.53;;;2.67;;
14708;SDS011;7445;50.774;4.944;2023-08-06T13:39:06;5.23;;;2.30;;
14708;SDS011;7445;50.774;4.944;2023-08-06T13:41:32;4.83;;;2.23;;
14708;SDS011;7445;50.774;4.944;2023-08-06T13:43:57;5.83;;;2.60;;
14708;SDS011;7445;50.774;4.944;2023-08-06T13:46:25;5.80;;;2.27;;
14708;SDS011;7445;50.774;4.944;2023-08-06T13:48:50;4.93;;;2.17;;
14708;SDS011;7445;50.774;4.944;2023-08-06T13:51:17;7.97;;;2.10;;
14708;SDS011;7445;50.774;4.944;2023-08-06T13:54:11;6.00;;;2.43;;
14708;SDS011;7445;50.774;4.944;2023-08-06T13:56:38;4.97;;;2.23;;
14708;SDS011;7445;50.774;4.944;2023-08-06T13:59:03;4.33;;;2.10;;
14708;SDS011;7445;50.774;4.944;2023-08-06T14:01:33;3.43;;;1.80;;
14708;SDS011;7445;50.774;4.944;2023-08-06T14:04:07;5.43;;;1.83;;
14708;SDS011;7445;50.774;4.944;2023-08-06T14:06:33;5.83;;;2.43;;
14708;SDS011;7445;50.774;4.944;2023-08-06T14:09:05;4.83;;;2.73;;
14708;SDS011;7445;50.774;4.944;2023-08-06T14:11:32;3.83;;;1.80;;
14708;SDS011;7445;50.774;4.944;2023-08-06T14:14:00;4.13;;;1.50;;
14708;SDS011;7445;50.774;4.944;2023-08-06T14:16:47;3.60;;;1.93;;
14708;SDS011;7445;50.774;4.944;2023-08-06T14:19:15;3.97;;;1.83;;
14708;SDS011;7445;50.774;4.944;2023-08-06T14:21:50;7.10;;;2.40;;
14708;SDS011;7445;50.774;4.944;2023-08-06T14:24:41;7.27;;;2.67;;
14708;SDS011;7445;50.774;4.944;2023-08-06T14:27:17;5.23;;;2.33;;
14708;SDS011;7445;50.774;4.944;2023-08-06T14:32:47;5.93;;;2.37;;
14708;SDS011;7445;50.774;4.944;2023-08-06T14:35:36;7.10;;;1.97;;
14708;SDS011;7445;50.774;4.944;2023-08-06T14:38:27;4.47;;;2.30;;
14708;SDS011;7445;50.774;4.944;2023-08-06T14:41:14;4.97;;;2.20;;
14708;SDS011;7445;50.774;4.944;2023-08-06T14:44:08;8.83;;;3.07;;
14708;SDS011;7445;50.774;4.944;2023-08-06T14:47:14;4.13;;;2.30;;
14708;SDS011;7445;50.774;4.944;2023-08-06T14:55:39;11.70;;;3.13;;
14708;SDS011;7445;50.774;4.944;2023-08-06T14:58:32;8.60;;;3.27;;
14708;SDS011;7445;50.774;4.944;2023-08-06T15:01:01;5.93;;;2.83;;
14708;SDS011;7445;50.774;4.944;2023-08-06T15:03:35;6.07;;;2.43;;
14708;SDS011;7445;50.774;4.944;2023-08-06T15:06:03;5.67;;;2.60;;
14708;SDS011;7445;50.774;4.944;2023-08-06T15:08:55;7.67;;;2.10;;
14708;SDS011;7445;50.774;4.944;2023-08-06T15:11:25;9.53;;;2.90;;
14708;SDS011;7445;50.774;4.944;2023-08-06T15:13:53;6.20;;;3.60;;
14708;SDS011;7445;50.774;4.944;2023-08-06T15:16:25;7.70;;;3.30;;
14708;SDS011;7445;50.774;4.944;2023-08-06T15:19:18;4.47;;;2.33;;
14708;SDS011;7445;50.774;4.944;2023-08-06T15:21:44;9.13;;;2.50;;
14708;SDS011;7445;50.774;4.944;2023-08-06T15:24:10;10.13;;;2.87;;
14708;SDS011;7445;50.774;4.944;2023-08-06T15:27:11;6.90;;;3.20;;
14708;SDS011;7445;50.774;4.944;2023-08-06T15:29:59;8.33;;;2.70;;
14708;SDS011;7445;50.774;4.944;2023-08-06T15:32:49;5.53;;;3.40;;
14708;SDS011;7445;50.774;4.944;2023-08-06T15:35:30;11.70;;;3.00;;
14708;SDS011;7445;50.774;4.944;2023-08-06T15:38:27;8.53;;;2.73;;
14708;SDS011;7445;50.774;4.944;2023-08-06T15:40:56;10.40;;;3.53;;
14708;SDS011;7445;50.774;4.944;2023-08-06T15:43:27;6.23;;;2.70;;
14708;SDS011;7445;50.774;4.944;2023-08-06T15:45:54;5.13;;;2.23;;
14708;SDS011;7445;50.774;4.944;2023-08-06T15:48:26;8.07;;;3.23;;
14708;SDS011;7445;50.774;4.944;2023-08-06T15:50:55;7.33;;;2.30;;
14708;SDS011;7445;50.774;4.944;2023-08-06T15:53:37;6.97;;;2.27;;
14708;SDS011;7445;50.774;4.944;2023-08-06T15:56:40;13.50;;;2.40;;
14708;SDS011;7445;50.774;4.944;2023-08-06T16:02:19;9.17;;;2.50;;
14708;SDS011;7445;50.774;4.944;2023-08-06T16:04:59;8.23;;;2.80;;
14708;SDS011;7445;50.774;4.944;2023-08-06T16:07:41;5.07;;;2.97;;
14708;SDS011;7445;50.774;4.944;2023-08-06T16:11:09;7.87;;;2.97;;
14708;SDS011;7445;50.774;4.944;2023-08-06T16:14:05;7.73;;;2.60;;
14708;SDS011;7445;50.774;4.944;2023-08-06T16:17:13;8.50;;;2.73;;
14708;SDS011;7445;50.774;4.944;2023-08-06T16:20:01;7.07;;;1.90;;
14708;SDS011;7445;50.774;4.944;2023-08-06T16:25:50;4.93;;;2.13;;
14708;SDS011;7445;50.774;4.944;2023-08-06T16:28:16;9.80;;;3.20;;
14708;SDS011;7445;50.774;4.944;2023-08-06T16:30:48;5.23;;;2.23;;
14708;SDS011;7445;50.774;4.944;2023-08-06T16:33:13;3.60;;;1.87;;
14708;SDS011;7445;50.774;4.944;2023-08-06T16:35:40;7.97;;;2.10;;
14708;SDS011;7445;50.774;4.944;2023-08-06T16:38:07;7.27;;;2.70;;
14708;SDS011;7445;50.774;4.944;2023-08-06T16:40:36;5.50;;;2.20;;
14708;SDS011;7445;50.774;4.944;2023-08-06T16:45:30;12.33;;;2.63;;
14708;SDS011;7445;50.774;4.944;2023-08-06T16:48:00;6.13;;;2.60;;
14708;SDS011;7445;50.774;4.944;2023-08-06T16:50:25;9.13;;;3.63;;
14708;SDS011;7445;50.774;4.944;2023-08-06T16:52:51;5.60;;;3.13;;
14708;SDS011;7445;50.774;4.944;2023-08-06T16:55:16;8.40;;;3.27;;
14708;SDS011;7445;50.774;4.944;2023-08-06T16:57:44;8.87;;;3.73;;
14708;SDS011;7445;50.774;4.944;2023-08-06T17:00:09;8.93;;;2.27;;
14708;SDS011;7445;50.774;4.944;2023-08-06T17:02:37;5.23;;;3.13;;
14708;SDS011;7445;50.774;4.944;2023-08-06T17:05:03;9.83;;;2.80;;
14708;SDS011;7445;50.774;4.944;2023-08-06T17:07:28;8.70;;;2.97;;
14708;SDS011;7445;50.774;4.944;2023-08-06T17:09:54;9.67;;;3.40;;
14708;SDS011;7445;50.774;4.944;2023-08-06T17:12:21;14.10;;;3.20;;
14708;SDS011;7445;50.774;4.944;2023-08-06T17:14:46;14.00;;;3.40;;
14708;SDS011;7445;50.774;4.944;2023-08-06T17:17:12;8.50;;;3.17;;
14708;SDS011;7445;50.774;4.944;2023-08-06T17:19:38;7.60;;;3.00;;
14708;SDS011;7445;50.774;4.944;2023-08-06T17:22:03;2.63;;;2.13;;
14708;SDS011;7445;50.774;4.944;2023-08-06T17:24:29;9.13;;;2.93;;
14708;SDS011;7445;50.774;4.944;2023-08-06T17:26:55;5.60;;;2.43;;
14708;SDS011;7445;50.774;4.944;2023-08-06T17:29:24;6.10;;;3.23;;
14708;SDS011;7445;50.774;4.944;2023-08-06T17:31:51;6.20;;;3.10;;
14708;SDS011;7445;50.774;4.944;2023-08-06T17:34:17;10.77;;;3.20;;
14708;SDS011;7445;50.774;4.944;2023-08-06T17:36:42;9.17;;;2.67;;
14708;SDS011;7445;50.774;4.944;2023-08-06T17:39:09;7.73;;;3.23;;
14708;SDS011;7445;50.774;4.944;2023-08-06T17:41:35;9.80;;;2.47;;
14708;SDS011;7445;50.774;4.944;2023-08-06T17:44:00;5.13;;;2.93;;
14708;SDS011;7445;50.774;4.944;2023-08-06T17:46:27;5.10;;;2.50;;
14708;SDS011;7445;50.774;4.944;2023-08-06T17:48:53;8.27;;;3.13;;
14708;SDS011;7445;50.774;4.944;2023-08-06T17:51:20;9.90;;;3.20;;
14708;SDS011;7445;50.774;4.944;2023-08-06T17:53:46;7.77;;;2.97;;
14708;SDS011;7445;50.774;4.944;2023-08-06T17:56:11;7.83;;;2.97;;
14708;SDS011;7445;50.774;4.944;2023-08-06T17:58:37;7.67;;;3.30;;
14708;SDS011;7445;50.774;4.944;2023-08-06T18:01:03;14.10;;;4.37;;
14708;SDS011;7445;50.774;4.944;2023-08-06T18:03:29;7.57;;;3.07;;
14708;SDS011;7445;50.774;4.944;2023-08-06T18:05:58;8.30;;;3.40;;
14708;SDS011;7445;50.774;4.944;2023-08-06T18:08:24;12.87;;;4.20;;
14708;SDS011;7445;50.774;4.944;2023-08-06T18:10:51;12.00;;;3.60;;
14708;SDS011;7445;50.774;4.944;2023-08-06T18:13:17;4.23;;;2.87;;
14708;SDS011;7445;50.774;4.944;2023-08-06T18:15:43;14.63;;;4.13;;
14708;SDS011;7445;50.774;4.944;2023-08-06T18:18:11;9.73;;;3.03;;
14708;SDS011;7445;50.774;4.944;2023-08-06T18:20:38;5.00;;;2.57;;
14708;SDS011;7445;50.774;4.944;2023-08-06T18:23:05;8.40;;;3.23;;
14708;SDS011;7445;50.774;4.944;2023-08-06T18:25:33;15.10;;;3.93;;
14708;SDS011;7445;50.774;4.944;2023-08-06T18:27:59;2.67;;;2.07;;
14708;SDS011;7445;50.774;4.944;2023-08-06T18:30:25;9.83;;;3.37;;
14708;SDS011;7445;50.774;4.944;2023-08-06T18:32:51;8.73;;;3.60;;
14708;SDS011;7445;50.774;4.944;2023-08-06T18:35:17;9.67;;;4.13;;
14708;SDS011;7445;50.774;4.944;2023-08-06T18:37:42;8.77;;;3.53;;
14708;SDS011;7445;50.774;4.944;2023-08-06T18:40:08;12.77;;;3.83;;
14708;SDS011;7445;50.774;4.944;2023-08-06T18:42:34;7.87;;;3.13;;
14708;SDS011;7445;50.774;4.944;2023-08-06T18:45:01;13.10;;;3.67;;
14708;SDS011;7445;50.774;4.944;2023-08-06T18:47:27;6.53;;;2.60;;
14708;SDS011;7445;50.774;4.944;2023-08-06T18:49:53;8.70;;;2.73;;
14708;SDS011;7445;50.774;4.944;2023-08-06T18:52:21;6.17;;;3.63;;
14708;SDS011;7445;50.774;4.944;2023-08-06T18:54:46;12.57;;;3.77;;
14708;SDS011;7445;50.774;4.944;2023-08-06T18:57:12;5.00;;;2.90;;
14708;SDS011;7445;50.774;4.944;2023-08-06T18:59:38;9.90;;;3.47;;
14708;SDS011;7445;50.774;4.944;2023-08-06T19:02:03;7.07;;;2.50;;
14708;SDS011;7445;50.774;4.944;2023-08-06T19:04:30;7.97;;;3.47;;
14708;SDS011;7445;50.774;4.944;2023-08-06T19:06:56;14.13;;;2.83;;
14708;SDS011;7445;50.774;4.944;2023-08-06T19:09:22;10.27;;;3.23;;
14708;SDS011;7445;50.774;4.944;2023-08-06T19:11:47;6.33;;;2.73;;
14708;SDS011;7445;50.774;4.944;2023-08-06T19:14:13;8.27;;;3.27;;
14708;SDS011;7445;50.774;4.944;2023-08-06T19:16:39;6.47;;;2.30;;
14708;SDS011;7445;50.774;4.944;2023-08-06T19:19:10;9.43;;;3.50;;
14708;SDS011;7445;50.774;4.944;2023-08-06T19:21:46;10.73;;;3.37;;
14708;SDS011;7445;50.774;4.944;2023-08-06T19:24:20;7.23;;;2.87;;
14708;SDS011;7445;50.774;4.944;2023-08-06T19:27:07;16.10;;;3.57;;
14708;SDS011;7445;50.774;4.944;2023-08-06T19:29:38;10.77;;;3.37;;
14708;SDS011;7445;50.774;4.944;2023-08-06T19:32:10;10.43;;;3.17;;
14708;SDS011;7445;50.774;4.944;2023-08-06T19:34:37;7.03;;;3.23;;
14708;SDS011;7445;50.774;4.944;2023-08-06T19:37:43;8.30;;;4.07;;
14708;SDS011;7445;50.774;4.944;2023-08-06T19:40:35;7.63;;;2.47;;
14708;SDS011;7445;50.774;4.944;2023-08-06T19:43:53;7.47;;;2.40;;
14708;SDS011;7445;50.774;4.944;2023-08-06T19:49:32;9.30;;;2.97;;
14708;SDS011;7445;50.774;4.944;2023-08-06T19:52:29;8.80;;;3.00;;
14708;SDS011;7445;50.774;4.944;2023-08-06T19:55:13;6.73;;;2.73;;
14708;SDS011;7445;50.774;4.944;2023-08-06T19:57:38;10.17;;;3.57;;
14708;SDS011;7445;50.774;4.944;2023-08-06T20:00:16;4.90;;;2.50;;
14708;SDS011;7445;50.774;4.944;2023-08-06T20:03:25;7.73;;;3.13;;
14708;SDS011;7445;50.774;4.944;2023-08-06T20:06:12;11.57;;;2.53;;
14708;SDS011;7445;50.774;4.944;2023-08-06T20:08:42;8.30;;;3.63;;
14708;SDS011;7445;50.774;4.944;2023-08-06T20:11:11;13.13;;;3.97;;
14708;SDS011;7445;50.774;4.944;2023-08-06T20:14:06;7.83;;;3.03;;
14708;SDS011;7445;50.774;4.944;2023-08-06T20:17:26;10.47;;;3.97;;
14708;SDS011;7445;50.774;4.944;2023-08-06T20:20:40;6.53;;;3.90;;
14708;SDS011;7445;50.774;4.944;2023-08-06T20:24:05;11.27;;;3.63;;
14708;SDS011;7445;50.774;4.944;2023-08-06T20:27:21;7.67;;;3.30;;
14708;SDS011;7445;50.774;4.944;2023-08-06T20:30:19;12.30;;;3.93;;
14708;SDS011;7445;50.774;4.944;2023-08-06T20:33:40;11.87;;;4.17;;
14708;SDS011;7445;50.774;4.944;2023-08-06T20:36:48;10.07;;;3.83;;
14708;SDS011;7445;50.774;4.944;2023-08-06T20:43:24;13.60;;;4.13;;
14708;SDS011;7445;50.774;4.944;2023-08-06T20:45:58;10.70;;;3.87;;
14708;SDS011;7445;50.774;4.944;2023-08-06T20:51:36;13.33;;;3.83;;
14708;SDS011;7445;50.774;4.944;2023-08-06T20:56:37;8.00;;;3.67;;
14708;SDS011;7445;50.774;4.944;2023-08-06T20:59:18;11.13;;;3.77;;
14708;SDS011;7445;50.774;4.944;2023-08-06T21:01:54;10.93;;;3.67;;
14708;SDS011;7445;50.774;4.944;2023-08-06T21:05:01;8.90;;;3.90;;
14708;SDS011;7445;50.774;4.944;2023-08-06T21:07:30;9.77;;;3.53;;
14708;SDS011;7445;50.774;4.944;2023-08-06T21:09:56;18.17;;;4.07;;
14708;SDS011;7445;50.774;4.944;2023-08-06T21:12:22;6.57;;;3.17;;
14708;SDS011;7445;50.774;4.944;2023-08-06T21:14:48;8.33;;;3.70;;
14708;SDS011;7445;50.774;4.944;2023-08-06T21:17:13;12.50;;;4.17;;
14708;SDS011;7445;50.774;4.944;2023-08-06T21:19:40;7.03;;;3.10;;
14708;SDS011;7445;50.774;4.944;2023-08-06T21:22:06;10.53;;;4.53;;
14708;SDS011;7445;50.774;4.944;2023-08-06T21:24:33;13.00;;;4.80;;
14708;SDS011;7445;50.774;4.944;2023-08-06T21:26:59;12.57;;;3.83;;
14708;SDS011;7445;50.774;4.944;2023-08-06T21:29:24;6.27;;;3.17;;
14708;SDS011;7445;50.774;4.944;2023-08-06T21:31:50;11.77;;;5.00;;
14708;SDS011;7445;50.774;4.944;2023-08-06T21:34:16;10.03;;;4.07;;
14708;SDS011;7445;50.774;4.944;2023-08-06T21:36:42;8.67;;;3.67;;
14708;SDS011;7445;50.774;4.944;2023-08-06T23:51:14;7.17;;;3.90;;
14708;SDS011;7445;50.774;4.944;2023-08-06T23:53:40;8.03;;;3.87;;
14708;SDS011;7445;50.774;4.944;2023-08-06T23:56:05;13.30;;;4.13;;
14708;SDS011;7445;50.774;4.944;2023-08-06T23:58:31;14.40;;;4.53;;
